createdAt,value
2019-04-21T00:00:06.255Z,39.96
2019-04-21T00:01:07.137Z,39.80
2019-04-21T00:02:03.389Z,40.28
2019-04-21T00:03:07.390Z,40.28
2019-04-21T00:04:11.314Z,40.12
2019-04-21T00:05:24.566Z,40.12
2019-04-21T00:06:25.033Z,39.64
2019-04-21T00:07:22.072Z,39.32
2019-04-21T00:08:30.727Z,40.12
2019-04-21T00:09:25.460Z,39.96
2019-04-21T00:10:26.949Z,40.28
2019-04-21T00:11:22.622Z,40.12
2019-04-21T00:12:34.477Z,39.48
2019-04-21T00:13:17.876Z,40.12
2019-04-21T00:14:14.203Z,40.12
2019-04-21T00:15:14.515Z,40.12
2019-04-21T00:16:07.451Z,40.12
2019-04-21T00:17:09.101Z,40.12
2019-04-21T00:18:06.846Z,39.96
2019-04-21T00:19:10.294Z,39.80
2019-04-21T00:20:15.033Z,40.28
2019-04-21T00:21:10.991Z,39.96
2019-04-21T00:22:17.811Z,40.28
2019-04-21T00:23:22.651Z,39.64
2019-04-21T00:24:16.542Z,40.12
2019-04-21T00:25:18.140Z,40.12
2019-04-21T00:26:21.142Z,39.96
2019-04-21T00:27:23.284Z,40.28
2019-04-21T00:28:23.904Z,39.96
2019-04-21T00:29:25.834Z,39.96
2019-04-21T00:30:21.787Z,40.12
2019-04-21T00:31:23.185Z,39.96
2019-04-21T00:32:19.551Z,39.96
2019-04-21T00:33:09.172Z,39.96
2019-04-21T00:34:02.871Z,39.96
2019-04-21T00:35:07.718Z,39.48
2019-04-21T00:36:12.592Z,40.28
2019-04-21T00:37:12.189Z,40.28
2019-04-21T00:38:25.240Z,40.28
2019-04-21T00:39:37.091Z,40.28
2019-04-21T00:40:22.730Z,39.80
2019-04-21T00:41:26.397Z,39.96
2019-04-21T00:42:22.876Z,39.80
2019-04-21T00:43:22.309Z,39.64
2019-04-21T00:44:16.423Z,39.96
2019-04-21T00:45:19.410Z,40.28
2019-04-21T00:46:10.781Z,39.96
2019-04-21T00:47:28.925Z,39.80
2019-04-21T00:48:25.770Z,39.96
2019-04-21T00:49:19.519Z,40.12
2019-04-21T00:50:24.829Z,39.80
2019-04-21T00:51:33.154Z,39.32
2019-04-21T00:52:39.898Z,40.12
2019-04-21T00:53:30.044Z,40.12
2019-04-21T00:54:33.088Z,40.28
2019-04-21T00:56:27.465Z,40.28
2019-04-21T00:57:25.241Z,40.12
2019-04-21T00:58:29.995Z,40.28
2019-04-21T00:59:28.190Z,39.80
2019-04-21T01:01:25.265Z,40.12
2019-04-21T01:02:26.394Z,40.28
2019-04-21T01:03:25.824Z,39.80
2019-04-21T01:04:28.278Z,39.96
2019-04-21T01:05:33.592Z,40.12
2019-04-21T01:06:22.431Z,40.12
2019-04-21T01:07:22.117Z,40.12
2019-04-21T01:08:25.156Z,39.96
2019-04-21T01:09:19.759Z,40.12
2019-04-21T01:10:19.800Z,39.48
2019-04-21T01:11:23.662Z,40.28
2019-04-21T01:12:29.788Z,39.80
2019-04-21T01:13:27.945Z,39.80
2019-04-21T01:14:32.857Z,40.12
2019-04-21T01:15:32.299Z,39.96
2019-04-21T01:16:29.921Z,40.12
2019-04-21T01:17:21.855Z,39.96
2019-04-21T01:18:20.657Z,39.32
2019-04-21T01:19:20.933Z,39.64
2019-04-21T01:20:16.094Z,40.12
2019-04-21T01:21:13.695Z,39.80
2019-04-21T01:22:01.479Z,39.64
2019-04-21T01:23:00.468Z,39.48
2019-04-21T01:24:08.227Z,39.64
2019-04-21T01:25:11.977Z,39.48
2019-04-21T01:26:18.247Z,39.64
2019-04-21T01:27:10.092Z,39.32
2019-04-21T01:28:23.273Z,39.80
2019-04-21T01:29:20.873Z,39.96
2019-04-21T01:30:25.727Z,39.64
2019-04-21T01:31:17.414Z,39.96
2019-04-21T01:32:25.424Z,39.64
2019-04-21T01:33:27.834Z,39.32
2019-04-21T01:34:25.196Z,39.16
2019-04-21T01:35:21.111Z,39.80
2019-04-21T01:36:19.702Z,39.48
2019-04-21T01:37:28.854Z,39.64
2019-04-21T01:38:28.852Z,39.80
2019-04-21T01:39:27.494Z,39.64
2019-04-21T01:40:29.586Z,39.80
2019-04-21T01:41:28.167Z,39.48
2019-04-21T01:42:21.063Z,39.80
2019-04-21T01:43:23.502Z,39.96
2019-04-21T01:44:34.848Z,39.48
2019-04-21T01:45:21.832Z,39.48
2019-04-21T01:46:22.478Z,39.32
2019-04-21T01:47:15.801Z,39.96
2019-04-21T01:48:22.481Z,39.48
2019-04-21T01:49:18.222Z,39.48
2019-04-21T01:50:14.399Z,39.80
2019-04-21T01:51:20.947Z,39.80
2019-04-21T01:52:34.397Z,39.80
2019-04-21T01:53:24.864Z,39.32
2019-04-21T01:54:21.930Z,39.96
2019-04-21T01:55:25.201Z,38.67
2019-04-21T01:56:24.775Z,39.32
2019-04-21T01:57:17.734Z,39.48
2019-04-21T01:58:21.084Z,39.64
2019-04-21T01:59:08.978Z,39.48
2019-04-21T02:00:13.274Z,39.64
2019-04-21T02:01:24.642Z,39.64
2019-04-21T02:02:26.667Z,39.96
2019-04-21T02:03:40.648Z,38.83
2019-04-21T02:04:34.750Z,39.32
2019-04-21T02:05:26.448Z,39.80
2019-04-21T02:06:21.386Z,39.64
2019-04-21T02:07:20.584Z,39.48
2019-04-21T02:08:25.942Z,39.48
2019-04-21T02:09:22.996Z,39.80
2019-04-21T02:10:32.122Z,39.16
2019-04-21T02:11:25.910Z,38.99
2019-04-21T02:12:30.263Z,39.64
2019-04-21T02:13:17.228Z,39.48
2019-04-21T02:14:46.067Z,39.48
2019-04-21T02:15:26.839Z,39.48
2019-04-21T02:16:23.167Z,39.48
2019-04-21T02:17:26.491Z,39.48
2019-04-21T02:18:25.545Z,38.83
2019-04-21T02:19:18.357Z,38.99
2019-04-21T02:20:16.533Z,39.48
2019-04-21T02:21:19.099Z,39.48
2019-04-21T02:22:28.726Z,39.48
2019-04-21T02:24:33.247Z,39.16
2019-04-21T02:25:26.161Z,38.99
2019-04-21T02:26:23.066Z,39.32
2019-04-21T02:27:24.592Z,39.64
2019-04-21T02:28:30.841Z,39.32
2019-04-21T02:29:29.067Z,39.48
2019-04-21T02:30:36.523Z,39.64
2019-04-21T02:32:42.055Z,39.16
2019-04-21T02:33:39.138Z,39.80
2019-04-21T02:34:54.835Z,39.80
2019-04-21T02:35:38.441Z,39.32
2019-04-21T02:36:40.396Z,39.48
2019-04-21T02:38:36.251Z,39.64
2019-04-21T02:39:46.682Z,39.16
2019-04-21T02:41:43.691Z,39.48
2019-04-21T02:42:39.434Z,39.64
2019-04-21T02:43:25.090Z,39.64
2019-04-21T02:44:37.419Z,39.80
2019-04-21T02:45:30.158Z,39.48
2019-04-21T02:46:42.375Z,39.64
2019-04-21T02:48:40.726Z,39.80
2019-04-21T02:49:57.275Z,39.80
2019-04-21T02:51:33.630Z,39.96
2019-04-21T02:52:35.445Z,39.80
2019-04-21T02:55:42.015Z,39.48
2019-04-21T02:56:38.092Z,39.80
2019-04-21T02:57:32.150Z,39.64
2019-04-21T02:58:34.520Z,39.48
2019-04-21T02:59:38.589Z,39.48
2019-04-21T03:00:45.112Z,38.99
2019-04-21T03:02:42.235Z,39.64
2019-04-21T03:04:36.164Z,39.64
2019-04-21T03:05:41.930Z,39.64
2019-04-21T03:06:29.127Z,39.48
2019-04-21T03:09:31.101Z,39.48
2019-04-21T03:10:40.539Z,39.48
2019-04-21T03:11:27.990Z,39.80
2019-04-21T03:13:40.983Z,39.48
2019-04-21T03:14:47.174Z,39.64
2019-04-21T03:15:59.183Z,39.64
2019-04-21T03:16:26.433Z,39.32
2019-04-21T03:17:48.836Z,39.80
2019-04-21T03:18:39.948Z,39.48
2019-04-21T03:20:35.775Z,39.80
2019-04-21T03:21:29.119Z,39.64
2019-04-21T03:23:41.736Z,39.80
2019-04-21T03:24:42.083Z,39.64
2019-04-21T03:25:45.174Z,39.32
2019-04-21T03:27:40.123Z,39.80
2019-04-21T03:34:56.868Z,39.48
2019-04-21T03:36:47.428Z,39.64
2019-04-21T03:37:30.742Z,39.64
2019-04-21T03:38:40.653Z,39.64
2019-04-21T03:39:37.290Z,39.80
2019-04-21T03:40:26.150Z,39.48
2019-04-21T03:44:32.730Z,39.80
2019-04-21T03:46:32.506Z,39.64
2019-04-21T03:47:30.639Z,39.32
2019-04-21T03:51:43.871Z,39.48
2019-04-21T03:52:39.134Z,39.64
2019-04-21T03:53:32.423Z,39.80
2019-04-21T03:54:37.308Z,39.48
2019-04-21T03:56:53.536Z,39.64
2019-04-21T03:57:52.507Z,39.48
2019-04-21T03:59:24.551Z,39.48
2019-04-21T04:01:22.128Z,39.48
2019-04-21T04:02:41.410Z,39.64
2019-04-21T04:04:45.442Z,39.80
2019-04-21T04:05:49.339Z,39.64
2019-04-21T04:06:38.785Z,39.48
2019-04-21T04:09:37.042Z,39.64
2019-04-21T04:10:34.472Z,39.32
2019-04-21T04:13:36.852Z,39.96
2019-04-21T04:14:40.453Z,39.96
2019-04-21T04:15:39.448Z,39.48
2019-04-21T04:16:57.101Z,39.64
2019-04-21T04:18:48.763Z,39.80
2019-04-21T04:20:42.613Z,39.96
2019-04-21T04:22:56.529Z,39.80
2019-04-21T04:23:40.581Z,39.80
2019-04-21T04:24:39.681Z,39.96
2019-04-21T04:25:29.632Z,39.64
2019-04-21T04:26:31.583Z,39.64
2019-04-21T04:27:49.203Z,39.64
2019-04-21T04:28:40.853Z,39.32
2019-04-21T04:30:32.515Z,39.32
2019-04-21T04:32:42.531Z,39.48
2019-04-21T04:33:37.283Z,39.64
2019-04-21T04:35:45.782Z,39.48
2019-04-21T04:36:45.847Z,39.64
2019-04-21T04:40:31.074Z,39.80
2019-04-21T04:41:45.568Z,39.80
2019-04-21T04:45:38.502Z,39.32
2019-04-21T04:46:33.519Z,39.48
2019-04-21T04:48:30.451Z,39.48
2019-04-21T04:50:45.461Z,39.48
2019-04-21T04:51:48.391Z,39.32
2019-04-21T04:53:40.157Z,39.80
2019-04-21T04:54:46.949Z,39.48
2019-04-21T04:55:33.897Z,39.16
2019-04-21T04:56:31.011Z,39.96
2019-04-21T04:57:57.700Z,39.64
2019-04-21T04:58:44.085Z,39.80
2019-04-21T05:00:36.961Z,39.48
2019-04-21T05:02:20.367Z,39.48
2019-04-21T05:02:33.881Z,39.80
2019-04-21T05:03:44.509Z,39.80
2019-04-21T05:04:40.143Z,39.64
2019-04-21T05:05:51.066Z,39.48
2019-04-21T05:07:34.013Z,39.64
2019-04-21T05:08:44.030Z,39.64
2019-04-21T05:09:33.662Z,39.48
2019-04-21T05:10:41.110Z,39.48
2019-04-21T05:12:32.494Z,39.64
2019-04-21T05:13:35.158Z,39.80
2019-04-21T05:14:29.868Z,39.32
2019-04-21T05:15:44.483Z,39.48
2019-04-21T05:17:34.375Z,39.96
2019-04-21T05:18:35.103Z,39.80
2019-04-21T05:19:53.853Z,40.12
2019-04-21T05:20:23.625Z,39.96
2019-04-21T05:21:40.492Z,39.96
2019-04-21T05:23:25.739Z,39.96
2019-04-21T05:24:20.841Z,39.96
2019-04-21T05:25:18.536Z,39.96
2019-04-21T05:26:14.667Z,39.80
2019-04-21T05:27:16.882Z,39.80
2019-04-21T05:28:11.325Z,39.80
2019-04-21T05:29:13.215Z,39.64
2019-04-21T05:30:28.526Z,39.96
2019-04-21T05:31:25.635Z,39.32
2019-04-21T05:32:26.634Z,39.80
2019-04-21T05:33:26.996Z,39.96
2019-04-21T05:34:21.955Z,40.28
2019-04-21T05:35:19.879Z,39.48
2019-04-21T05:36:23.990Z,40.28
2019-04-21T05:37:21.953Z,39.96
2019-04-21T05:38:16.757Z,39.96
2019-04-21T05:39:18.825Z,40.12
2019-04-21T05:40:18.336Z,39.64
2019-04-21T05:41:14.949Z,40.44
2019-04-21T05:42:10.237Z,39.96
2019-04-21T05:43:25.983Z,39.64
2019-04-21T05:44:32.993Z,40.44
2019-04-21T05:45:23.105Z,40.28
2019-04-21T05:46:25.403Z,40.12
2019-04-21T05:47:29.551Z,39.64
2019-04-21T05:49:25.292Z,40.28
2019-04-21T05:50:16.724Z,40.61
2019-04-21T05:51:20.499Z,40.28
2019-04-21T05:52:19.858Z,40.28
2019-04-21T05:53:29.598Z,40.28
2019-04-21T05:54:31.357Z,40.28
2019-04-21T05:55:24.469Z,40.28
2019-04-21T05:56:23.004Z,40.61
2019-04-21T05:57:25.370Z,40.12
2019-04-21T05:58:21.038Z,40.28
2019-04-21T05:59:22.095Z,40.44
2019-04-21T06:00:31.011Z,40.28
2019-04-21T06:01:31.493Z,40.93
2019-04-21T06:02:23.642Z,40.77
2019-04-21T06:03:23.870Z,41.09
2019-04-21T06:04:38.940Z,41.09
2019-04-21T06:05:39.199Z,40.93
2019-04-21T06:06:31.021Z,41.09
2019-04-21T06:07:24.038Z,40.93
2019-04-21T06:08:27.064Z,41.09
2019-04-21T06:09:27.401Z,40.77
2019-04-21T06:10:27.381Z,40.77
2019-04-21T06:11:28.883Z,41.25
2019-04-21T06:12:21.355Z,40.93
2019-04-21T06:13:26.893Z,41.25
2019-04-21T06:14:20.566Z,40.93
2019-04-21T06:15:19.813Z,40.93
2019-04-21T06:16:43.081Z,41.41
2019-04-21T06:17:32.875Z,41.41
2019-04-21T06:18:28.867Z,41.41
2019-04-21T06:19:33.514Z,41.57
2019-04-21T06:20:21.197Z,41.57
2019-04-21T06:21:21.952Z,41.41
2019-04-21T06:22:19.149Z,41.73
2019-04-21T06:23:24.141Z,41.73
2019-04-21T06:24:23.099Z,41.57
2019-04-21T06:25:50.285Z,41.73
2019-04-21T06:27:28.403Z,41.73
2019-04-21T06:28:30.348Z,41.57
2019-04-21T06:29:23.419Z,41.89
2019-04-21T06:30:25.281Z,41.89
2019-04-21T06:31:42.157Z,41.41
2019-04-21T06:33:28.313Z,42.06
2019-04-21T06:34:24.578Z,42.22
2019-04-21T06:35:28.770Z,42.06
2019-04-21T06:36:36.283Z,41.73
2019-04-21T06:37:43.192Z,41.73
2019-04-21T06:38:36.591Z,42.06
2019-04-21T06:39:25.624Z,42.06
2019-04-21T06:40:32.222Z,41.89
2019-04-21T06:42:18.579Z,42.22
2019-04-21T06:43:44.814Z,41.73
2019-04-21T06:44:20.415Z,42.38
2019-04-21T06:45:27.699Z,41.73
2019-04-21T06:46:30.936Z,41.73
2019-04-21T06:47:33.132Z,42.06
2019-04-21T06:48:30.073Z,42.22
2019-04-21T06:49:18.782Z,42.22
2019-04-21T06:50:23.966Z,42.22
2019-04-21T06:51:29.275Z,42.38
2019-04-21T06:52:44.689Z,42.06
2019-04-21T06:53:29.666Z,42.22
2019-04-21T06:54:24.756Z,42.38
2019-04-21T06:55:31.175Z,41.89
2019-04-21T06:56:34.837Z,42.38
2019-04-21T06:57:23.104Z,41.89
2019-04-21T06:58:22.420Z,42.22
2019-04-21T06:59:20.785Z,42.22
2019-04-21T07:00:18.528Z,42.22
2019-04-21T07:01:24.142Z,42.54
2019-04-21T07:02:40.939Z,42.70
2019-04-21T07:04:25.329Z,42.22
2019-04-21T07:05:26.428Z,42.38
2019-04-21T07:06:26.111Z,42.54
2019-04-21T07:07:26.189Z,42.54
2019-04-21T07:09:28.565Z,42.70
2019-04-21T07:11:18.948Z,43.18
2019-04-21T07:12:22.060Z,42.86
2019-04-21T07:13:21.965Z,42.38
2019-04-21T07:15:25.382Z,43.02
2019-04-21T07:16:28.486Z,43.02
2019-04-21T07:17:24.240Z,42.54
2019-04-21T07:18:27.600Z,42.38
2019-04-21T07:19:30.329Z,42.86
2019-04-21T07:20:21.781Z,43.18
2019-04-21T07:21:19.689Z,42.70
2019-04-21T07:22:25.009Z,43.18
2019-04-21T07:23:23.849Z,43.02
2019-04-21T07:24:30.440Z,43.02
2019-04-21T07:25:22.495Z,43.02
2019-04-21T07:26:19.497Z,42.54
2019-04-21T07:27:23.980Z,43.18
2019-04-21T07:28:25.570Z,42.86
2019-04-21T07:29:32.114Z,42.86
2019-04-21T07:30:26.584Z,42.70
2019-04-21T07:31:25.439Z,42.86
2019-04-21T07:32:20.627Z,43.02
2019-04-21T07:33:45.013Z,42.86
2019-04-21T07:34:30.456Z,42.86
2019-04-21T07:35:21.833Z,42.86
2019-04-21T07:36:30.896Z,43.34
2019-04-21T07:37:23.855Z,42.70
2019-04-21T07:38:25.639Z,42.70
2019-04-21T07:39:18.534Z,42.70
2019-04-21T07:40:17.699Z,43.02
2019-04-21T07:41:15.764Z,43.02
2019-04-21T07:42:18.719Z,42.86
2019-04-21T07:43:18.154Z,43.02
2019-04-21T07:44:15.355Z,43.02
2019-04-21T07:45:19.505Z,42.86
2019-04-21T07:46:17.189Z,43.18
2019-04-21T07:47:20.457Z,43.02
2019-04-21T07:48:23.052Z,43.02
2019-04-21T07:49:20.154Z,42.86
2019-04-21T07:50:22.663Z,42.70
2019-04-21T07:51:25.192Z,43.02
2019-04-21T07:52:22.198Z,43.02
2019-04-21T07:53:27.683Z,43.34
2019-04-21T07:54:34.216Z,43.02
2019-04-21T07:56:07.275Z,43.34
2019-04-21T07:57:16.927Z,42.86
2019-04-21T07:58:22.323Z,43.34
2019-04-21T07:59:27.224Z,43.18
2019-04-21T08:01:25.717Z,42.86
2019-04-21T08:02:27.449Z,43.18
2019-04-21T08:03:19.383Z,43.18
2019-04-21T08:04:37.656Z,42.86
2019-04-21T08:05:23.662Z,43.02
2019-04-21T08:06:20.506Z,43.83
2019-04-21T08:07:21.967Z,43.34
2019-04-21T08:08:20.766Z,43.51
2019-04-21T08:09:19.289Z,43.51
2019-04-21T08:10:15.676Z,43.51
2019-04-21T08:11:16.672Z,43.67
2019-04-21T08:12:15.788Z,43.34
2019-04-21T08:13:29.873Z,43.18
2019-04-21T08:14:24.289Z,42.86
2019-04-21T08:15:27.553Z,42.86
2019-04-21T08:16:42.066Z,43.67
2019-04-21T08:17:20.590Z,43.34
2019-04-21T08:18:20.389Z,43.34
2019-04-21T08:19:18.774Z,43.02
2019-04-21T08:20:18.737Z,43.18
2019-04-21T08:21:24.636Z,43.51
2019-04-21T08:22:25.714Z,43.18
2019-04-21T08:23:18.610Z,42.86
2019-04-21T08:24:25.411Z,43.51
2019-04-21T08:25:20.562Z,43.83
2019-04-21T08:26:17.535Z,43.83
2019-04-21T08:27:18.511Z,43.83
2019-04-21T08:28:19.165Z,43.51
2019-04-21T08:29:25.597Z,43.67
2019-04-21T08:30:21.147Z,43.83
2019-04-21T08:31:27.930Z,43.83
2019-04-21T08:32:31.698Z,43.99
2019-04-21T08:33:24.906Z,43.67
2019-04-21T08:34:21.636Z,43.83
2019-04-21T08:35:52.956Z,43.67
2019-04-21T08:37:18.295Z,43.67
2019-04-21T08:38:21.967Z,44.31
2019-04-21T08:39:19.610Z,44.31
2019-04-21T08:40:27.059Z,44.47
2019-04-21T08:41:18.389Z,44.63
2019-04-21T08:42:16.920Z,44.31
2019-04-21T08:43:30.776Z,44.15
2019-04-21T08:44:30.070Z,44.31
2019-04-21T08:45:25.819Z,44.47
2019-04-21T08:46:20.111Z,44.63
2019-04-21T08:47:19.293Z,44.31
2019-04-21T08:48:17.089Z,44.31
2019-04-21T08:49:20.394Z,44.15
2019-04-21T08:50:20.729Z,44.31
2019-04-21T08:51:27.537Z,44.15
2019-04-21T08:52:28.458Z,44.15
2019-04-21T08:53:19.743Z,43.99
2019-04-21T08:54:23.548Z,44.15
2019-04-21T08:55:20.038Z,43.99
2019-04-21T08:56:23.507Z,44.15
2019-04-21T08:57:28.870Z,44.15
2019-04-21T08:58:30.822Z,44.15
2019-04-21T08:59:25.463Z,43.99
2019-04-21T09:00:19.822Z,43.83
2019-04-21T09:01:25.805Z,44.15
2019-04-21T09:02:23.708Z,44.15
2019-04-21T09:03:21.294Z,43.83
2019-04-21T09:04:21.243Z,43.51
2019-04-21T09:05:19.174Z,43.67
2019-04-21T09:06:27.984Z,43.83
2019-04-21T09:08:23.218Z,43.34
2019-04-21T09:09:20.032Z,43.34
2019-04-21T09:10:17.577Z,43.18
2019-04-21T09:12:16.077Z,43.02
2019-04-21T09:13:21.201Z,43.18
2019-04-21T09:14:20.723Z,43.51
2019-04-21T09:15:18.995Z,43.34
2019-04-21T09:16:16.955Z,43.18
2019-04-21T09:17:15.369Z,42.70
2019-04-21T09:18:17.526Z,43.18
2019-04-21T09:19:21.431Z,43.34
2019-04-21T09:20:31.071Z,43.67
2019-04-21T09:21:22.525Z,43.83
2019-04-21T09:22:17.779Z,43.34
2019-04-21T09:23:19.484Z,43.83
2019-04-21T09:24:19.385Z,43.99
2019-04-21T09:25:21.094Z,43.83
2019-04-21T09:26:18.669Z,43.51
2019-04-21T09:27:14.260Z,43.67
2019-04-21T09:28:10.899Z,43.34
2019-04-21T09:29:11.866Z,43.83
2019-04-21T09:30:03.454Z,43.67
2019-04-21T09:31:03.236Z,43.34
2019-04-21T09:32:01.411Z,43.34
2019-04-21T09:32:59.859Z,43.67
2019-04-21T09:34:02.310Z,43.34
2019-04-21T09:35:03.367Z,43.18
2019-04-21T09:36:02.544Z,43.02
2019-04-21T09:37:12.692Z,42.86
2019-04-21T09:38:11.235Z,43.18
2019-04-21T09:39:08.706Z,42.70
2019-04-21T09:40:00.885Z,42.86
2019-04-21T09:40:58.300Z,42.86
2019-04-21T09:42:02.413Z,42.86
2019-04-21T09:43:03.241Z,42.70
2019-04-21T09:44:01.205Z,42.70
2019-04-21T09:45:00.654Z,42.54
2019-04-21T09:45:59.323Z,42.70
2019-04-21T09:47:01.030Z,41.89
2019-04-21T09:48:06.156Z,42.54
2019-04-21T09:49:04.154Z,42.54
2019-04-21T09:50:01.822Z,42.22
2019-04-21T09:50:59.541Z,42.38
2019-04-21T09:51:57.687Z,42.06
2019-04-21T09:53:03.955Z,42.38
2019-04-21T09:54:05.808Z,42.38
2019-04-21T09:55:08.289Z,42.22
2019-04-21T09:56:03.143Z,42.38
2019-04-21T09:57:03.980Z,42.22
2019-04-21T09:58:10.113Z,42.22
2019-04-21T09:59:11.346Z,42.54
2019-04-21T10:00:07.914Z,42.54
2019-04-21T10:01:10.801Z,42.86
2019-04-21T10:02:08.477Z,42.86
2019-04-21T10:03:06.050Z,42.70
2019-04-21T10:04:03.351Z,42.22
2019-04-21T10:04:59.484Z,42.86
2019-04-21T10:05:58.664Z,43.51
2019-04-21T10:06:58.654Z,43.51
2019-04-21T10:07:57.496Z,43.51
2019-04-21T10:09:03.766Z,43.51
2019-04-21T10:10:00.232Z,43.99
2019-04-21T10:10:59.257Z,43.99
2019-04-21T10:11:57.159Z,43.67
2019-04-21T10:12:57.122Z,44.15
2019-04-21T10:13:57.128Z,44.31
2019-04-21T10:14:57.412Z,43.99
2019-04-21T10:15:58.500Z,44.31
2019-04-21T10:16:58.819Z,43.99
2019-04-21T10:17:58.318Z,44.79
2019-04-21T10:18:57.122Z,44.79
2019-04-21T10:19:57.065Z,44.79
2019-04-21T10:20:57.075Z,44.79
2019-04-21T10:21:59.455Z,44.79
2019-04-21T10:22:57.362Z,44.31
2019-04-21T10:23:58.091Z,44.79
2019-04-21T10:24:58.393Z,44.79
2019-04-21T10:25:57.034Z,44.79
2019-04-21T10:26:57.054Z,44.79
2019-04-21T10:27:57.093Z,44.79
2019-04-21T10:29:05.717Z,44.31
2019-04-21T10:29:59.017Z,44.47
2019-04-21T10:30:56.998Z,44.47
2019-04-21T10:31:57.335Z,43.83
2019-04-21T10:32:58.499Z,44.31
2019-04-21T10:33:56.974Z,43.83
2019-04-21T10:34:57.050Z,44.15
2019-04-21T10:35:59.130Z,44.31
2019-04-21T10:36:56.981Z,44.31
2019-04-21T10:38:08.982Z,43.83
2019-04-21T10:39:00.420Z,43.83
2019-04-21T10:39:57.791Z,43.83
2019-04-21T10:40:57.190Z,43.67
2019-04-21T10:41:59.480Z,43.83
2019-04-21T10:42:58.273Z,43.34
2019-04-21T10:43:56.947Z,43.67
2019-04-21T10:44:56.939Z,43.34
2019-04-21T10:45:57.196Z,43.51
2019-04-21T10:46:56.904Z,43.67
2019-04-21T10:47:56.937Z,43.02
2019-04-21T10:48:56.958Z,43.18
2019-04-21T10:49:58.267Z,44.15
2019-04-21T10:50:57.050Z,43.99
2019-04-21T10:51:57.216Z,43.99
2019-04-21T10:52:58.711Z,43.99
2019-04-21T10:53:57.923Z,43.67
2019-04-21T10:55:21.868Z,44.15
2019-04-21T10:56:10.461Z,43.83
2019-04-21T10:56:58.864Z,44.15
2019-04-21T10:57:57.927Z,44.15
2019-04-21T10:58:58.264Z,43.51
2019-04-21T10:59:58.205Z,44.15
2019-04-21T11:00:57.883Z,44.15
2019-04-21T11:01:56.903Z,44.15
2019-04-21T11:02:58.992Z,44.15
2019-04-21T11:03:56.794Z,44.31
2019-04-21T11:04:56.805Z,44.31
2019-04-21T11:05:56.829Z,44.31
2019-04-21T11:07:04.235Z,44.47
2019-04-21T11:08:10.124Z,44.15
2019-04-21T11:08:59.985Z,44.47
2019-04-21T11:09:58.044Z,44.31
2019-04-21T11:10:58.145Z,44.15
2019-04-21T11:11:57.837Z,43.99
2019-04-21T11:12:56.879Z,44.31
2019-04-21T11:13:58.870Z,44.31
2019-04-21T11:14:56.977Z,44.31
2019-04-21T11:15:57.131Z,44.47
2019-04-21T11:16:58.550Z,44.31
2019-04-21T11:17:57.674Z,44.31
2019-04-21T11:18:57.934Z,43.99
2019-04-21T11:19:57.056Z,44.47
2019-04-21T11:20:58.680Z,44.79
2019-04-21T11:21:56.923Z,44.63
2019-04-21T11:22:57.750Z,44.47
2019-04-21T11:23:56.675Z,44.47
2019-04-21T11:24:56.796Z,44.31
2019-04-21T11:25:58.086Z,44.79
2019-04-21T11:26:58.189Z,44.31
2019-04-21T11:27:58.691Z,44.63
2019-04-21T11:28:56.864Z,44.79
2019-04-21T11:29:57.946Z,44.63
2019-04-21T11:30:57.177Z,44.47
2019-04-21T11:31:58.807Z,44.63
2019-04-21T11:32:57.146Z,44.47
2019-04-21T11:33:57.560Z,44.79
2019-04-21T11:34:57.014Z,44.79
2019-04-21T11:35:57.430Z,44.47
2019-04-21T11:36:56.564Z,44.63
2019-04-21T11:38:06.175Z,43.83
2019-04-21T11:39:16.877Z,43.83
2019-04-21T11:40:06.446Z,43.67
2019-04-21T11:40:59.735Z,44.15
2019-04-21T11:41:57.700Z,44.31
2019-04-21T11:42:57.685Z,43.99
2019-04-21T11:43:57.529Z,44.31
2019-04-21T11:44:57.540Z,44.31
2019-04-21T11:45:56.503Z,44.47
2019-04-21T11:46:56.543Z,44.31
2019-04-21T11:47:56.544Z,43.99
2019-04-21T11:48:57.919Z,44.15
2019-04-21T11:49:57.072Z,44.15
2019-04-21T11:50:57.318Z,43.02
2019-04-21T11:51:56.650Z,43.51
2019-04-21T11:52:56.913Z,43.34
2019-04-21T11:53:57.474Z,43.67
2019-04-21T11:54:56.461Z,43.51
2019-04-21T11:55:56.972Z,43.02
2019-04-21T11:56:57.760Z,43.67
2019-04-21T11:57:56.571Z,43.67
2019-04-21T11:58:57.874Z,43.34
2019-04-21T11:59:57.583Z,43.34
2019-04-21T12:00:57.821Z,43.18
2019-04-21T12:01:57.264Z,43.34
2019-04-21T12:02:57.501Z,43.34
2019-04-21T12:03:57.832Z,43.34
2019-04-21T12:04:57.223Z,43.34
2019-04-21T12:05:57.383Z,43.34
2019-04-21T12:06:57.827Z,43.51
2019-04-21T12:07:58.534Z,42.70
2019-04-21T12:08:59.853Z,43.51
2019-04-21T12:09:57.587Z,43.18
2019-04-21T12:10:57.716Z,43.18
2019-04-21T12:11:57.370Z,43.02
2019-04-21T12:12:57.129Z,43.18
2019-04-21T12:13:56.366Z,43.02
2019-04-21T12:14:57.568Z,43.18
2019-04-21T12:15:57.143Z,42.70
2019-04-21T12:16:57.209Z,43.18
2019-04-21T12:17:56.727Z,43.02
2019-04-21T12:18:56.766Z,43.18
2019-04-21T12:19:57.300Z,42.86
2019-04-21T12:20:57.547Z,43.02
2019-04-21T12:22:05.006Z,43.51
2019-04-21T12:22:58.290Z,43.34
2019-04-21T12:23:56.646Z,43.34
2019-04-21T12:24:57.502Z,43.34
2019-04-21T12:25:57.253Z,43.18
2019-04-21T12:26:56.259Z,43.18
2019-04-21T12:27:56.272Z,43.02
2019-04-21T12:28:57.561Z,43.18
2019-04-21T12:29:57.607Z,42.70
2019-04-21T12:30:56.243Z,43.51
2019-04-21T12:31:57.245Z,43.18
2019-04-21T12:32:56.221Z,43.18
2019-04-21T12:33:56.337Z,43.18
2019-04-21T12:34:57.704Z,42.86
2019-04-21T12:35:56.203Z,43.51
2019-04-21T12:36:57.050Z,43.34
2019-04-21T12:37:56.416Z,43.18
2019-04-21T12:39:00.076Z,42.86
2019-04-21T12:39:58.982Z,43.18
2019-04-21T12:40:56.895Z,43.02
2019-04-21T12:41:56.446Z,43.34
2019-04-21T12:42:57.150Z,43.02
2019-04-21T12:43:56.983Z,43.18
2019-04-21T12:44:57.221Z,43.18
2019-04-21T12:45:56.129Z,42.86
2019-04-21T12:46:56.145Z,43.34
2019-04-21T12:47:57.949Z,42.86
2019-04-21T12:48:56.122Z,43.02
2019-04-21T12:49:57.020Z,43.18
2019-04-21T12:50:57.467Z,43.18
2019-04-21T12:51:57.577Z,43.18
2019-04-21T12:52:56.118Z,43.18
2019-04-21T12:53:57.472Z,43.34
2019-04-21T12:54:57.515Z,43.34
2019-04-21T12:55:56.119Z,43.02
2019-04-21T12:56:56.117Z,43.18
2019-04-21T12:57:57.252Z,43.02
2019-04-21T12:58:57.549Z,43.02
2019-04-21T12:59:57.137Z,42.86
2019-04-21T13:00:56.718Z,43.18
2019-04-21T13:01:56.944Z,43.18
2019-04-21T13:02:56.128Z,43.02
2019-04-21T13:03:57.820Z,43.34
2019-04-21T13:04:56.085Z,42.86
2019-04-21T13:05:56.030Z,43.02
2019-04-21T13:06:57.274Z,43.34
2019-04-21T13:07:57.381Z,42.70
2019-04-21T13:09:04.620Z,43.02
2019-04-21T13:09:58.139Z,42.70
2019-04-21T13:10:56.141Z,43.18
2019-04-21T13:11:57.223Z,43.02
2019-04-21T13:12:56.280Z,42.86
2019-04-21T13:13:57.827Z,42.86
2019-04-21T13:14:57.636Z,42.86
2019-04-21T13:15:57.708Z,42.70
2019-04-21T13:16:57.387Z,43.18
2019-04-21T13:17:58.408Z,43.02
2019-04-21T13:18:55.940Z,43.18
2019-04-21T13:19:56.986Z,43.18
2019-04-21T13:20:56.111Z,43.02
2019-04-21T13:21:56.125Z,43.02
2019-04-21T13:22:55.928Z,43.18
2019-04-21T13:23:56.895Z,43.02
2019-04-21T13:24:55.918Z,42.70
2019-04-21T13:25:56.106Z,43.02
2019-04-21T13:26:59.483Z,43.02
2019-04-21T13:27:56.928Z,43.18
2019-04-21T13:28:56.418Z,43.02
2019-04-21T13:29:56.525Z,43.02
2019-04-21T13:30:56.071Z,43.18
2019-04-21T13:31:56.274Z,42.70
2019-04-21T13:32:58.592Z,43.18
2019-04-21T13:33:55.928Z,42.54
2019-04-21T13:34:57.047Z,43.18
2019-04-21T13:35:57.197Z,42.86
2019-04-21T13:36:57.240Z,42.86
2019-04-21T13:37:56.323Z,43.34
2019-04-21T13:39:27.623Z,43.02
2019-04-21T13:40:20.434Z,42.86
2019-04-21T13:41:13.100Z,42.86
2019-04-21T13:42:07.657Z,43.02
2019-04-21T13:43:00.719Z,43.18
2019-04-21T13:43:59.107Z,42.86
2019-04-21T13:44:58.958Z,42.86
2019-04-21T13:45:57.482Z,42.86
2019-04-21T13:46:56.538Z,42.86
2019-04-21T13:47:56.697Z,42.86
2019-04-21T13:48:55.743Z,43.34
2019-04-21T13:49:59.026Z,43.18
2019-04-21T13:50:57.311Z,42.86
2019-04-21T13:51:56.149Z,43.02
2019-04-21T13:52:56.725Z,43.02
2019-04-21T13:53:55.729Z,42.70
2019-04-21T13:54:55.953Z,42.70
2019-04-21T13:55:58.206Z,42.70
2019-04-21T13:56:56.527Z,42.54
2019-04-21T13:57:56.798Z,42.70
2019-04-21T13:58:55.975Z,43.34
2019-04-21T13:59:57.213Z,42.54
2019-04-21T14:00:57.850Z,42.38
2019-04-21T14:01:55.681Z,42.06
2019-04-21T14:02:56.499Z,42.38
2019-04-21T14:03:55.659Z,41.73
2019-04-21T14:04:55.807Z,42.38